createdAt,value
2022-12-27T00:01:51.400Z,101075.56
2022-12-27T00:04:17.906Z,101080.91
2022-12-27T00:06:44.419Z,101082.19
2022-12-27T00:09:10.962Z,101084.41
2022-12-27T00:11:38.837Z,101088.97
2022-12-27T00:14:06.822Z,101094.38
2022-12-27T00:16:34.338Z,101103.19
2022-12-27T00:19:01.059Z,101105.09
2022-12-27T00:21:27.629Z,101105.66
2022-12-27T00:23:56.070Z,101119.84
2022-12-27T00:26:31.222Z,101116.25
2022-12-27T00:28:58.277Z,101127.28
2022-12-27T00:31:26.639Z,101119.94
2022-12-27T00:33:55.574Z,101109.88
2022-12-27T00:36:24.835Z,101116.22
2022-12-27T00:38:52.518Z,101121.28
2022-12-27T00:41:19.660Z,101122.78
2022-12-27T00:43:46.864Z,101111.25
2022-12-27T00:46:14.505Z,101116.19
2022-12-27T00:48:41.482Z,101116.44
2022-12-27T00:51:13.231Z,101118.31
2022-12-27T00:53:39.870Z,101117.44
2022-12-27T00:56:12.081Z,101127.72
2022-12-27T00:58:41.009Z,101139.41
2022-12-27T01:01:10.077Z,101140.31
2022-12-27T01:03:36.817Z,101133.31
2022-12-27T01:06:05.795Z,101139.66
2022-12-27T01:08:32.224Z,101138.59
2022-12-27T01:10:59.185Z,101142.16
2022-12-27T01:13:25.712Z,101143.97
2022-12-27T01:15:52.423Z,101149.31
2022-12-27T01:18:18.869Z,101156.66
2022-12-27T01:20:45.348Z,101165.63
2022-12-27T01:23:11.883Z,101162.91
2022-12-27T01:25:38.308Z,101168.59
2022-12-27T01:28:05.384Z,101179.75
2022-12-27T01:30:31.859Z,101176.47
2022-12-27T01:32:58.342Z,101190.09
2022-12-27T01:35:24.947Z,101190.47
2022-12-27T01:37:52.023Z,101187.53
2022-12-27T01:40:18.885Z,101184.91
2022-12-27T01:42:55.584Z,101191.88
2022-12-27T01:45:24.484Z,101189.34
2022-12-27T01:48:01.265Z,101181.59
2022-12-27T01:50:30.937Z,101191.03
2022-12-27T01:52:57.312Z,101196.88
2022-12-27T01:55:38.883Z,101197.00
2022-12-27T01:58:12.001Z,101198.78
2022-12-27T02:00:41.316Z,101212.69
2022-12-27T02:03:08.061Z,101205.78
2022-12-27T02:09:41.359Z,101208.50
2022-12-27T02:12:10.179Z,101208.38
2022-12-27T02:14:46.034Z,101210.25
2022-12-27T02:17:25.146Z,101206.31
2022-12-27T02:20:05.115Z,101221.59
2022-12-27T02:23:12.033Z,101215.81
2022-12-27T02:25:50.620Z,101226.06
2022-12-27T02:28:53.203Z,101235.00
2022-12-27T02:31:43.547Z,101224.16
2022-12-27T02:34:24.222Z,101229.97
2022-12-27T02:36:56.335Z,101231.03
2022-12-27T02:39:23.637Z,101231.94
2022-12-27T02:42:10.686Z,101241.97
2022-12-27T02:44:55.825Z,101231.34
2022-12-27T02:47:43.381Z,101239.53
2022-12-27T02:50:30.872Z,101239.22
2022-12-27T02:53:26.825Z,101257.56
2022-12-27T02:56:37.247Z,101250.56
2022-12-27T02:59:38.242Z,101261.13
2022-12-27T03:02:38.328Z,101256.81
2022-12-27T03:05:25.472Z,101261.69
2022-12-27T03:08:21.484Z,101265.47
2022-12-27T03:11:18.108Z,101264.03
2022-12-27T03:14:25.778Z,101280.06
2022-12-27T03:16:58.453Z,101265.22
2022-12-27T03:19:52.305Z,101266.44
2022-12-27T03:22:41.384Z,101271.88
2022-12-27T03:25:27.856Z,101267.19
2022-12-27T03:28:30.246Z,101276.66
2022-12-27T03:31:27.965Z,101272.09
2022-12-27T03:34:04.483Z,101271.66
2022-12-27T03:36:52.845Z,101271.13
2022-12-27T03:39:26.267Z,101273.44
2022-12-27T03:42:21.897Z,101273.00
2022-12-27T03:44:48.965Z,101281.38
2022-12-27T03:47:34.850Z,101274.41
2022-12-27T03:50:25.734Z,101276.09
2022-12-27T03:53:00.900Z,101290.31
2022-12-27T03:55:33.124Z,101283.59
2022-12-27T03:58:00.165Z,101284.69
2022-12-27T04:00:28.027Z,101280.69
2022-12-27T04:02:54.957Z,101287.19
2022-12-27T04:05:21.569Z,101284.25
2022-12-27T04:08:06.332Z,101284.09
2022-12-27T04:10:51.326Z,101292.16
2022-12-27T04:13:36.109Z,101294.94
2022-12-27T04:16:21.129Z,101292.88
2022-12-27T04:19:06.010Z,101289.47
2022-12-27T04:21:51.028Z,101293.50
2022-12-27T04:24:35.869Z,101294.41
2022-12-27T04:27:20.561Z,101288.28
2022-12-27T04:30:05.387Z,101290.31
2022-12-27T04:32:50.413Z,101289.81
2022-12-27T04:35:16.877Z,101288.47
2022-12-27T04:37:43.321Z,101283.63
2022-12-27T04:40:28.640Z,101287.09
2022-12-27T04:43:13.787Z,101299.88
2022-12-27T04:45:58.954Z,101292.88
2022-12-27T04:48:47.160Z,101290.25
2022-12-27T04:51:32.203Z,101302.97
2022-12-27T04:54:17.410Z,101305.66
2022-12-27T04:56:43.871Z,101313.78
2022-12-27T04:59:28.562Z,101313.50
2022-12-27T05:02:04.500Z,101304.75
2022-12-27T05:04:32.838Z,101296.81
2022-12-27T05:07:19.935Z,101292.97
2022-12-27T05:10:12.806Z,101295.44
2022-12-27T05:12:57.731Z,101288.53
2022-12-27T05:15:24.290Z,101290.16
2022-12-27T05:17:50.714Z,101291.28
2022-12-27T05:20:17.186Z,101291.00
2022-12-27T05:23:02.064Z,101303.31
2022-12-27T05:25:34.595Z,101304.31
2022-12-27T05:28:05.590Z,101312.06
2022-12-27T05:30:40.883Z,101311.66
2022-12-27T05:33:07.883Z,101317.47
2022-12-27T05:35:35.133Z,101316.19
2022-12-27T05:38:01.863Z,101315.06
2022-12-27T05:40:28.420Z,101331.00
2022-12-27T05:42:54.872Z,101330.94
2022-12-27T05:45:21.478Z,101330.25
2022-12-27T05:47:47.895Z,101325.97
2022-12-27T05:50:14.327Z,101333.16
2022-12-27T05:52:41.506Z,101338.34
2022-12-27T05:55:08.894Z,101332.69
2022-12-27T05:57:35.358Z,101335.03
2022-12-27T06:00:02.314Z,101336.03
2022-12-27T06:02:29.021Z,101337.91
2022-12-27T06:04:55.595Z,101347.22
2022-12-27T06:07:22.063Z,101357.78
2022-12-27T06:09:48.999Z,101349.06
2022-12-27T06:12:15.603Z,101356.78
2022-12-27T06:14:42.150Z,101360.00
2022-12-27T06:17:08.585Z,101358.28
2022-12-27T06:19:35.368Z,101361.34
2022-12-27T06:22:01.960Z,101357.34
2022-12-27T06:24:28.436Z,101356.47
2022-12-27T06:26:54.834Z,101367.06
2022-12-27T06:29:21.416Z,101361.44
2022-12-27T06:31:48.268Z,101371.59
2022-12-27T06:34:14.834Z,101367.56
2022-12-27T06:36:41.321Z,101375.88
2022-12-27T06:39:07.885Z,101372.66
2022-12-27T06:41:34.330Z,101378.41
2022-12-27T06:44:00.831Z,101384.75
2022-12-27T06:46:27.464Z,101392.44
2022-12-27T06:48:53.885Z,101381.75
2022-12-27T06:51:21.956Z,101387.50
2022-12-27T06:53:49.352Z,101385.38
2022-12-27T06:56:22.087Z,101386.50
2022-12-27T06:58:50.294Z,101386.50
2022-12-27T07:01:21.259Z,101382.53
2022-12-27T07:03:52.221Z,101396.63
2022-12-27T07:06:20.081Z,101390.09
2022-12-27T07:08:47.280Z,101394.47
2022-12-27T07:11:14.723Z,101395.00
2022-12-27T07:13:46.486Z,101401.91
2022-12-27T07:16:15.060Z,101407.06
2022-12-27T07:18:42.115Z,101404.66
2022-12-27T07:21:20.313Z,101405.16
2022-12-27T07:23:47.070Z,101415.50
2022-12-27T07:26:23.005Z,101420.06
2022-12-27T07:28:49.926Z,101424.59
2022-12-27T07:31:20.827Z,101418.53
2022-12-27T07:33:47.425Z,101425.69
2022-12-27T07:36:16.998Z,101434.78
2022-12-27T07:38:44.366Z,101429.31
2022-12-27T07:41:12.258Z,101440.44
2022-12-27T07:43:39.324Z,101434.28
2022-12-27T07:46:09.104Z,101433.22
2022-12-27T07:48:36.208Z,101444.06
2022-12-27T07:51:03.849Z,101451.03
2022-12-27T07:53:30.708Z,101450.41
2022-12-27T07:55:57.693Z,101449.13
2022-12-27T07:58:24.469Z,101460.41
2022-12-27T08:00:52.541Z,101453.25
2022-12-27T08:03:19.672Z,101446.91
2022-12-27T08:05:52.417Z,101447.59
2022-12-27T08:08:23.388Z,101452.81
2022-12-27T08:10:49.978Z,101450.41
2022-12-27T08:13:16.416Z,101456.81
2022-12-27T08:15:43.841Z,101455.47
2022-12-27T08:18:10.652Z,101456.81
2022-12-27T08:20:37.287Z,101466.56
2022-12-27T08:23:03.878Z,101471.50
2022-12-27T08:25:30.778Z,101470.13
2022-12-27T08:28:12.742Z,101473.81
2022-12-27T08:30:40.897Z,101477.56
2022-12-27T08:33:08.082Z,101472.69
2022-12-27T08:35:52.676Z,101471.69
2022-12-27T08:38:20.327Z,101465.19
2022-12-27T08:40:46.896Z,101468.50
2022-12-27T08:43:14.353Z,101467.16
2022-12-27T08:45:40.836Z,101469.88
2022-12-27T08:48:07.622Z,101469.47
2022-12-27T08:50:34.359Z,101468.97
2022-12-27T08:53:03.635Z,101484.00
2022-12-27T08:55:30.834Z,101478.66
2022-12-27T08:58:09.208Z,101484.84
2022-12-27T09:00:40.380Z,101482.88
2022-12-27T09:03:06.917Z,101490.44
2022-12-27T09:05:39.624Z,101495.75
2022-12-27T09:08:08.183Z,101489.09
2022-12-27T09:10:34.649Z,101491.50
2022-12-27T09:13:01.070Z,101483.91
2022-12-27T09:15:27.659Z,101494.16
2022-12-27T09:17:55.279Z,101487.91
2022-12-27T09:20:21.728Z,101487.63
2022-12-27T09:22:48.176Z,101488.97
2022-12-27T09:25:14.706Z,101487.41
2022-12-27T09:27:41.198Z,101492.75
2022-12-27T09:30:09.253Z,101490.22
2022-12-27T09:32:35.861Z,101489.25
2022-12-27T09:35:03.191Z,101499.25
2022-12-27T09:37:29.703Z,101495.16
2022-12-27T09:39:56.948Z,101491.84
2022-12-27T09:43:16.245Z,101484.88
2022-12-27T09:45:50.405Z,101497.75
2022-12-27T09:48:33.574Z,101499.22
2022-12-27T09:51:07.081Z,101517.69
2022-12-27T09:53:46.419Z,101519.00
2022-12-27T09:56:17.860Z,101508.34
2022-12-27T09:58:52.564Z,101512.03
2022-12-27T10:01:23.760Z,101514.59
2022-12-27T10:03:51.200Z,101508.03
2022-12-27T10:06:20.345Z,101505.31
2022-12-27T10:09:22.291Z,101502.00
2022-12-27T10:12:09.867Z,101506.06
2022-12-27T10:14:56.046Z,101504.75
2022-12-27T10:18:00.043Z,101516.69
2022-12-27T10:20:53.627Z,101491.28
2022-12-27T10:23:24.317Z,101490.84
2022-12-27T10:26:01.414Z,101497.09
2022-12-27T10:28:38.604Z,101495.78
2022-12-27T10:31:05.421Z,101495.13
2022-12-27T10:33:34.665Z,101513.66
2022-12-27T10:36:09.506Z,101524.19
2022-12-27T10:38:36.159Z,101525.72
2022-12-27T10:41:38.525Z,101524.91
2022-12-27T10:44:11.510Z,101526.59
2022-12-27T10:46:39.180Z,101534.78
2022-12-27T10:49:21.316Z,101535.28
2022-12-27T10:51:50.024Z,101540.00
2022-12-27T10:54:22.317Z,101548.31
2022-12-27T10:56:48.931Z,101543.38
2022-12-27T10:59:19.839Z,101539.72
2022-12-27T11:02:00.115Z,101544.25
2022-12-27T11:04:27.101Z,101549.97
2022-12-27T11:07:00.066Z,101551.47
2022-12-27T11:09:46.456Z,101548.16
2022-12-27T11:12:24.507Z,101554.31
2022-12-27T11:14:56.969Z,101552.59
2022-12-27T11:17:45.590Z,101551.34
2022-12-27T11:20:14.948Z,101556.28
2022-12-27T11:23:01.350Z,101563.88
2022-12-27T11:25:29.376Z,101564.34
2022-12-27T11:28:03.411Z,101555.34
2022-12-27T11:30:33.743Z,101567.94
2022-12-27T11:33:06.215Z,101569.47
2022-12-27T11:35:44.762Z,101572.31
2022-12-27T11:38:30.438Z,101576.66
2022-12-27T11:41:03.326Z,101582.66
2022-12-27T11:43:36.538Z,101577.81
2022-12-27T11:46:10.571Z,101575.94
2022-12-27T11:48:42.152Z,101574.78
2022-12-27T11:51:20.463Z,101583.19
2022-12-27T11:53:56.609Z,101571.94
2022-12-27T11:56:37.976Z,101569.75
2022-12-27T11:59:04.380Z,101556.66
2022-12-27T12:01:44.302Z,101576.13
2022-12-27T12:04:38.839Z,101562.81
2022-12-27T12:07:17.458Z,101569.44
2022-12-27T12:09:49.753Z,101558.59
2022-12-27T12:12:22.010Z,101564.72
2022-12-27T12:15:23.648Z,101559.22
2022-12-27T12:18:17.712Z,101571.72
2022-12-27T12:20:59.364Z,101569.50
2022-12-27T12:23:25.750Z,101577.16
2022-12-27T12:26:20.136Z,101581.59
2022-12-27T12:28:59.890Z,101574.22
2022-12-27T12:31:55.995Z,101578.19
2022-12-27T12:34:37.646Z,101578.09
2022-12-27T12:37:17.755Z,101585.00
2022-12-27T12:40:27.391Z,101590.31
2022-12-27T12:43:17.544Z,101592.78
2022-12-27T12:46:10.854Z,101589.81
2022-12-27T12:49:17.094Z,101597.88
2022-12-27T12:52:20.483Z,101593.38
2022-12-27T12:55:05.821Z,101587.63
2022-12-27T12:57:44.663Z,101590.59
2022-12-27T13:00:42.030Z,101595.34
2022-12-27T13:03:23.483Z,101597.84
2022-12-27T13:05:59.114Z,101599.72
2022-12-27T13:08:43.768Z,101601.66
2022-12-27T13:11:55.429Z,101597.78
2022-12-27T13:14:59.729Z,101598.63
2022-12-27T13:18:10.971Z,101608.09
2022-12-27T13:21:00.298Z,101620.38
2022-12-27T13:23:32.911Z,101620.09
2022-12-27T13:26:30.227Z,101621.34
2022-12-27T13:29:23.931Z,101618.28
2022-12-27T13:32:10.985Z,101629.38
2022-12-27T13:34:37.484Z,101619.31
2022-12-27T13:37:31.064Z,101621.59
2022-12-27T13:40:24.339Z,101625.69
2022-12-27T13:43:29.065Z,101632.13
2022-12-27T13:46:13.860Z,101622.72
2022-12-27T13:49:05.264Z,101638.50
2022-12-27T13:51:50.700Z,101630.63
2022-12-27T13:54:41.555Z,101630.63
2022-12-27T13:57:17.332Z,101633.56
2022-12-27T13:59:51.194Z,101629.38
2022-12-27T14:02:32.871Z,101647.56
2022-12-27T14:05:02.379Z,101638.09
2022-12-27T14:07:38.221Z,101634.69
2022-12-27T14:10:19.703Z,101640.97
2022-12-27T14:12:57.288Z,101647.97
2022-12-27T14:15:41.388Z,101645.50
2022-12-27T14:18:19.931Z,101643.56
2022-12-27T14:21:17.369Z,101640.06
2022-12-27T14:24:03.728Z,101650.75
2022-12-27T14:26:55.415Z,101654.25
2022-12-27T14:29:37.677Z,101651.63
2022-12-27T14:32:13.959Z,101659.38
2022-12-27T14:35:27.386Z,101661.72
2022-12-27T14:38:21.024Z,101662.69
2022-12-27T14:41:10.072Z,101669.28
2022-12-27T14:43:54.500Z,101657.41
2022-12-27T14:46:45.673Z,101670.88
2022-12-27T14:49:34.575Z,101670.44
2022-12-27T14:52:53.169Z,101670.13
2022-12-27T14:55:34.549Z,101665.97
2022-12-27T14:58:19.484Z,101671.94
2022-12-27T15:01:15.015Z,101673.59
2022-12-27T15:03:54.343Z,101677.41
2022-12-27T15:06:33.220Z,101691.81
2022-12-27T15:09:19.976Z,101679.56
2022-12-27T15:11:57.835Z,101694.44
2022-12-27T15:14:53.908Z,101693.25
2022-12-27T15:17:51.130Z,101700.09
2022-12-27T15:20:25.503Z,101707.59
2022-12-27T15:23:07.006Z,101699.59
2022-12-27T15:25:50.191Z,101702.41
2022-12-27T15:28:25.780Z,101706.63
2022-12-27T15:31:22.451Z,101692.06
2022-12-27T15:34:19.950Z,101680.78
2022-12-27T15:36:49.154Z,101684.56
2022-12-27T15:39:34.086Z,101682.16
2022-12-27T15:42:23.591Z,101685.06
2022-12-27T15:45:27.148Z,101681.81
2022-12-27T15:48:28.984Z,101677.28
2022-12-27T15:50:59.420Z,101668.03
2022-12-27T15:53:44.915Z,101677.22
2022-12-27T15:56:20.202Z,101671.06
2022-12-27T15:59:25.007Z,101676.34
2022-12-27T16:02:23.715Z,101679.06
2022-12-27T16:04:51.986Z,101678.13
2022-12-27T16:07:37.160Z,101664.81
2022-12-27T16:10:35.718Z,101673.78
2022-12-27T16:13:05.007Z,101675.66
2022-12-27T16:15:34.540Z,101681.59
2022-12-27T16:18:02.571Z,101684.25
2022-12-27T16:20:31.503Z,101685.25
2022-12-27T16:23:10.046Z,101691.50
2022-12-27T16:25:37.935Z,101686.22
2022-12-27T16:28:20.244Z,101688.00
2022-12-27T16:30:50.084Z,101695.41
2022-12-27T16:33:33.614Z,101695.25
2022-12-27T16:36:12.275Z,101690.63
2022-12-27T16:38:46.700Z,101688.91
2022-12-27T16:41:17.703Z,101692.78
2022-12-27T16:43:59.488Z,101685.81
2022-12-27T16:46:31.855Z,101698.28
2022-12-27T16:49:28.798Z,101687.63
2022-12-27T16:52:14.891Z,101689.09
2022-12-27T16:55:15.545Z,101692.22
2022-12-27T16:57:47.977Z,101697.09
2022-12-27T17:00:36.495Z,101696.09
2022-12-27T17:03:20.865Z,101701.44
2022-12-27T17:06:22.165Z,101692.19
2022-12-27T17:08:39.105Z,101689.31
2022-12-27T17:11:14.836Z,101696.84
2022-12-27T17:13:51.007Z,101697.25
2022-12-27T17:16:22.684Z,101702.50
2022-12-27T17:18:53.481Z,101692.88
2022-12-27T17:21:34.094Z,101693.84
2022-12-27T17:24:07.523Z,101693.44
2022-12-27T17:27:05.989Z,101695.63
2022-12-27T17:30:13.685Z,101699.47
2022-12-27T17:33:23.526Z,101693.16
2022-12-27T17:36:01.919Z,101696.81
2022-12-27T17:38:51.629Z,101702.13
2022-12-27T17:41:53.739Z,101695.41
2022-12-27T17:44:38.177Z,101695.31
2022-12-27T17:47:25.679Z,101704.44
2022-12-27T17:49:53.753Z,101698.97
2022-12-27T17:52:43.959Z,101706.16
2022-12-27T17:55:39.522Z,101714.78
2022-12-27T17:58:11.762Z,101707.63
2022-12-27T18:00:55.022Z,101706.75
2022-12-27T18:03:23.262Z,101713.16
2022-12-27T18:05:50.127Z,101707.56
2022-12-27T18:08:22.525Z,101696.81
2022-12-27T18:10:49.185Z,101695.88
2022-12-27T18:13:20.671Z,101694.78
2022-12-27T18:15:49.630Z,101702.25
2022-12-27T18:18:28.141Z,101700.00
2022-12-27T18:21:04.063Z,101700.31
2022-12-27T18:23:40.674Z,101705.50
2022-12-27T18:26:13.395Z,101699.16
2022-12-27T18:28:41.194Z,101695.28
2022-12-27T18:31:19.769Z,101696.41
2022-12-27T18:33:50.567Z,101692.13
2022-12-27T18:36:31.860Z,101687.06
2022-12-27T18:39:05.070Z,101681.63
2022-12-27T18:41:46.586Z,101682.47
2022-12-27T18:44:26.512Z,101682.94
2022-12-27T18:47:04.332Z,101686.06
2022-12-27T18:49:33.916Z,101687.47
2022-12-27T18:52:02.240Z,101678.91
2022-12-27T18:54:28.660Z,101680.22
2022-12-27T18:57:00.395Z,101677.34
2022-12-27T18:59:30.032Z,101685.09
2022-12-27T19:01:59.497Z,101693.25
2022-12-27T19:04:31.669Z,101689.09
2022-12-27T19:07:01.057Z,101678.34
2022-12-27T19:09:35.233Z,101686.09
2022-12-27T19:12:26.346Z,101682.97
2022-12-27T19:14:54.030Z,101683.78
2022-12-27T19:17:32.221Z,101682.69
2022-12-27T19:20:02.488Z,101676.56
2022-12-27T19:22:40.531Z,101676.13
2022-12-27T19:25:34.972Z,101668.22
2022-12-27T19:28:05.733Z,101670.19
2022-12-27T19:30:39.215Z,101659.00
2022-12-27T19:33:13.291Z,101662.22
2022-12-27T19:35:40.998Z,101666.78
2022-12-27T19:38:11.652Z,101671.59
2022-12-27T19:40:39.952Z,101669.44
2022-12-27T19:43:06.434Z,101674.97
2022-12-27T19:45:32.911Z,101668.72
2022-12-27T19:47:59.381Z,101668.81
2022-12-27T19:50:25.893Z,101671.00
2022-12-27T19:52:52.557Z,101669.16
2022-12-27T19:55:24.545Z,101667.31
2022-12-27T19:57:51.450Z,101671.78
2022-12-27T20:00:18.813Z,101669.28
2022-12-27T20:02:45.760Z,101666.88
2022-12-27T20:05:12.769Z,101656.38
2022-12-27T20:07:40.218Z,101654.25
2022-12-27T20:10:07.663Z,101661.09
2022-12-27T20:12:34.193Z,101655.28
2022-12-27T20:15:00.921Z,101649.00
2022-12-27T20:17:28.678Z,101650.53
2022-12-27T20:19:55.223Z,101648.81
2022-12-27T20:22:21.687Z,101657.66
2022-12-27T20:24:48.277Z,101655.66
2022-12-27T20:27:14.753Z,101659.47
2022-12-27T20:29:41.353Z,101650.06
2022-12-27T20:32:08.004Z,101646.41
2022-12-27T20:34:36.998Z,101659.25
2022-12-27T20:37:03.760Z,101653.22
2022-12-27T20:39:30.261Z,101660.16
2022-12-27T20:41:56.803Z,101656.97
2022-12-27T20:44:23.507Z,101650.72
2022-12-27T20:46:50.691Z,101644.72
2022-12-27T20:49:17.370Z,101647.88
2022-12-27T20:51:43.798Z,101635.84
2022-12-27T20:54:12.109Z,101634.88
2022-12-27T20:56:38.778Z,101640.47
2022-12-27T20:59:05.287Z,101632.25
2022-12-27T21:01:32.359Z,101628.81
2022-12-27T21:03:58.951Z,101631.41
2022-12-27T21:06:27.802Z,101628.66
2022-12-27T21:08:57.129Z,101625.44
2022-12-27T21:11:27.463Z,101622.09
2022-12-27T21:13:54.880Z,101621.94
2022-12-27T21:16:23.953Z,101619.66
2022-12-27T21:18:50.912Z,101610.66
2022-12-27T21:21:20.136Z,101616.81
2022-12-27T21:23:47.456Z,101608.03
2022-12-27T21:26:27.841Z,101609.25
2022-12-27T21:28:55.143Z,101614.22
2022-12-27T21:31:22.504Z,101609.44
2022-12-27T21:33:49.494Z,101604.69
2022-12-27T21:36:21.935Z,101607.09
2022-12-27T21:38:48.881Z,101599.75
2022-12-27T21:41:26.387Z,101606.53
2022-12-27T21:43:53.281Z,101601.78
2022-12-27T21:46:26.952Z,101612.06
2022-12-27T21:49:07.935Z,101599.47
2022-12-27T21:51:35.990Z,101602.75
2022-12-27T21:54:03.520Z,101612.22
2022-12-27T21:56:30.963Z,101605.19
2022-12-27T21:58:59.780Z,101606.00
2022-12-27T22:01:29.192Z,101606.28
2022-12-27T22:03:57.441Z,101601.00
2022-12-27T22:06:28.631Z,101601.16
2022-12-27T22:09:00.733Z,101588.03
2022-12-27T22:11:28.322Z,101589.66
2022-12-27T22:13:56.729Z,101582.50
2022-12-27T22:16:27.681Z,101581.81
2022-12-27T22:18:55.990Z,101578.84
2022-12-27T22:21:25.631Z,101576.78
2022-12-27T22:23:54.116Z,101567.28
2022-12-27T22:26:23.488Z,101565.41
2022-12-27T22:28:50.089Z,101567.75
2022-12-27T22:31:19.596Z,101557.97
2022-12-27T22:33:46.556Z,101550.72
2022-12-27T22:36:15.795Z,101554.09
2022-12-27T22:38:47.617Z,101545.84
2022-12-27T22:41:27.192Z,101539.47
2022-12-27T22:43:58.698Z,101537.13
2022-12-27T22:46:26.339Z,101545.91
2022-12-27T22:48:55.309Z,101544.66
2022-12-27T22:51:28.156Z,101562.47
2022-12-27T22:53:56.064Z,101541.31
2022-12-27T22:56:28.051Z,101540.16
2022-12-27T22:58:54.874Z,101538.81
2022-12-27T23:01:25.065Z,101530.88
2022-12-27T23:03:51.807Z,101526.16
2022-12-27T23:06:18.582Z,101525.00
2022-12-27T23:08:45.991Z,101525.31
2022-12-27T23:11:16.987Z,101524.16
2022-12-27T23:13:44.121Z,101509.44
2022-12-27T23:16:10.802Z,101505.25
2022-12-27T23:18:39.481Z,101517.50
2022-12-27T23:21:21.693Z,101522.78
2022-12-27T23:23:50.827Z,101516.91
2022-12-27T23:26:20.226Z,101499.63
2022-12-27T23:28:48.185Z,101507.78
2022-12-27T23:31:15.653Z,101502.53
2022-12-27T23:33:43.177Z,101503.22
2022-12-27T23:36:10.761Z,101500.25
2022-12-27T23:38:37.273Z,101485.88
2022-12-27T23:41:06.232Z,101494.66
2022-12-27T23:43:52.290Z,101489.31
2022-12-27T23:46:31.914Z,101484.63
2022-12-27T23:49:01.337Z,101479.16
2022-12-27T23:51:29.998Z,101475.66
2022-12-27T23:53:56.896Z,101477.94
2022-12-27T23:56:26.158Z,101486.84
2022-12-27T23:58:54.706Z,101474.03
